Time;durP1;ratioP1;P1;durP2;ratioP2;P2;SDS_P1;SDS_P2;PMS_P1;PMS_P2;Temp;Humidity;BMP_temperature;BMP_pressure;BME280_temperature;BME280_humidity;BME280_pressure;Samples;Min_cycle;Max_cycle;Signal;HPM_P1;HPM_P2
2021/12/09 00:01:14;;;;;;;36.77;28.43;;;;;;;0.31;100.00;94852.00;5071666;27;101785;-67
2021/12/09 00:03:42;;;;;;;37.40;28.23;;;;;;;0.29;100.00;94864.53;5067508;27;103918;-67
2021/12/09 00:06:11;;;;;;;37.00;29.60;;;;;;;0.28;100.00;94847.25;5068471;27;101902;-67
2021/12/09 00:08:38;;;;;;;37.43;31.03;;;;;;;0.46;100.00;94834.09;5068012;27;104959;-68
2021/12/09 00:11:07;;;;;;;39.50;30.87;;;;;;;0.49;100.00;94829.19;5067232;27;105468;-68
2021/12/09 00:13:36;;;;;;;36.83;30.50;;;;;;;0.44;100.00;94826.47;5072414;27;102163;-67
2021/12/09 00:16:04;;;;;;;38.83;31.27;;;;;;;0.44;100.00;94826.47;5071496;27;105011;-68
2021/12/09 00:18:31;;;;;;;37.77;30.33;;;;;;;0.43;100.00;94819.66;5070912;27;104373;-67
2021/12/09 00:20:58;;;;;;;36.07;31.37;;;;;;;0.53;100.00;94806.81;5071504;27;101956;-67
2021/12/09 00:23:25;;;;;;;40.10;31.87;;;;;;;0.52;100.00;94801.81;5074300;27;105720;-68
2021/12/09 00:25:52;;;;;;;38.90;31.97;;;;;;;0.38;100.00;94826.56;5071442;27;101836;-67
2021/12/09 00:28:18;;;;;;;39.13;32.43;;;;;;;0.43;100.00;94842.38;5072745;27;104219;-67
2021/12/09 00:30:47;;;;;;;39.27;32.53;;;;;;;0.39;100.00;94838.63;5070729;27;106242;-68
2021/12/09 00:33:16;;;;;;;40.67;33.30;;;;;;;0.30;100.00;94822.47;5071159;27;102222;-68
2021/12/09 00:35:50;;;;;;;38.30;32.57;;;;;;;0.34;100.00;94823.59;5071252;27;105810;-68
2021/12/09 00:38:22;;;;;;;38.57;31.77;;;;;;;0.32;100.00;94827.47;5070886;27;105099;-67
2021/12/09 00:40:50;;;;;;;39.13;32.27;;;;;;;0.41;100.00;94832.16;5071248;27;101872;-67
2021/12/09 00:43:20;;;;;;;39.40;31.83;;;;;;;0.48;100.00;94842.50;5071965;27;102348;-67
2021/12/09 00:45:49;;;;;;;39.20;31.37;;;;;;;0.49;100.00;94838.84;5073745;27;105488;-67
2021/12/09 00:48:16;;;;;;;36.27;30.47;;;;;;;0.49;100.00;94825.78;5071130;27;105235;-67
2021/12/09 00:50:43;;;;;;;41.00;32.97;;;;;;;0.53;100.00;94827.72;5070446;27;103965;-67
2021/12/09 00:53:10;;;;;;;38.83;32.17;;;;;;;0.38;100.00;94855.31;5071041;27;102370;-68
2021/12/09 00:55:38;;;;;;;40.87;32.27;;;;;;;0.41;100.00;94862.72;5071269;27;104833;-67
2021/12/09 00:58:06;;;;;;;40.33;32.03;;;;;;;0.28;100.00;94866.31;5070075;27;105650;-68
2021/12/09 01:00:35;;;;;;;39.90;33.43;;;;;;;0.24;100.00;94869.63;5070837;27;101881;-67
2021/12/09 01:03:03;;;;;;;42.10;33.37;;;;;;;0.40;100.00;94866.38;5071049;27;104858;-68
2021/12/09 01:05:31;;;;;;;40.40;32.50;;;;;;;0.38;100.00;94865.78;5070172;27;105042;-67
2021/12/09 01:07:58;;;;;;;42.00;32.27;;;;;;;0.31;100.00;94852.81;5074144;27;101847;-68
2021/12/09 01:10:26;;;;;;;38.43;31.87;;;;;;;0.34;100.00;94847.13;5070270;27;105184;-68
2021/12/09 01:12:54;;;;;;;40.30;33.03;;;;;;;0.45;100.00;94848.19;5070522;27;102096;-68
2021/12/09 01:15:21;;;;;;;40.50;32.70;;;;;;;0.45;100.00;94862.03;5070685;27;104774;-67
2021/12/09 01:17:48;;;;;;;39.00;31.07;;;;;;;0.31;100.00;94852.00;5069945;27;105445;-67
2021/12/09 01:20:20;;;;;;;36.73;30.20;;;;;;;0.30;100.00;94839.97;5071766;27;101790;-68
2021/12/09 01:22:47;;;;;;;36.70;30.27;;;;;;;0.31;100.00;94842.38;5070538;27;104721;-67
2021/12/09 01:25:17;;;;;;;38.67;31.43;;;;;;;0.40;100.00;94846.22;5069143;27;105152;-68
2021/12/09 01:27:47;;;;;;;37.93;30.70;;;;;;;0.45;100.00;94850.81;5073684;27;102007;-67
2021/12/09 01:30:18;;;;;;;39.13;31.00;;;;;;;0.42;100.00;94851.25;5069917;27;105494;-68
2021/12/09 01:32:50;;;;;;;41.17;32.30;;;;;;;0.51;100.00;94842.06;5070435;27;101735;-67
2021/12/09 01:35:21;;;;;;;39.33;31.40;;;;;;;0.54;100.00;94841.59;5071799;27;102593;-67
2021/12/09 01:37:52;;;;;;;42.40;32.87;;;;;;;0.45;100.00;94843.75;5071137;27;101772;-67
2021/12/09 01:40:19;;;;;;;40.97;32.33;;;;;;;0.52;100.00;94843.66;5070036;27;101845;-67
2021/12/09 01:42:46;;;;;;;40.90;31.93;;;;;;;0.55;100.00;94851.06;5070025;27;104947;-68
2021/12/09 01:45:14;;;;;;;40.00;31.67;;;;;;;0.52;100.00;94852.28;5069432;27;104200;-67
2021/12/09 01:47:41;;;;;;;41.33;31.53;;;;;;;0.39;100.00;94849.09;5071048;27;101719;-68
2021/12/09 01:50:09;;;;;;;39.63;31.63;;;;;;;0.38;100.00;94855.31;5073081;27;105728;-67
2021/12/09 01:52:38;;;;;;;47.53;31.47;;;;;;;0.45;100.00;94853.41;5070042;27;101914;-68
2021/12/09 01:55:08;;;;;;;37.53;28.97;;;;;;;0.32;100.00;94859.63;5069833;27;104968;-68
2021/12/09 01:57:35;;;;;;;40.83;31.87;;;;;;;0.42;100.00;94851.25;5069125;27;103976;-68
2021/12/09 02:00:04;;;;;;;36.07;28.30;;;;;;;0.30;100.00;94855.66;5069764;27;102004;-68
2021/12/09 02:02:31;;;;;;;38.23;30.20;;;;;;;0.36;100.00;94857.38;5071081;27;102444;-68
2021/12/09 02:04:58;;;;;;;37.30;28.90;;;;;;;0.39;100.00;94856.94;5070678;27;102598;-68
2021/12/09 02:07:25;;;;;;;40.07;30.83;;;;;;;0.43;100.00;94850.22;5069862;27;101905;-68
2021/12/09 02:09:54;;;;;;;35.93;28.90;;;;;;;0.42;100.00;94853.84;5052648;27;105046;-67
2021/12/09 02:12:22;;;;;;;39.40;30.23;;;;;;;0.42;100.00;94848.63;5072623;27;105359;-67
2021/12/09 02:14:49;;;;;;;37.70;29.83;;;;;;;0.56;100.00;94836.94;5069511;27;104788;-68
2021/12/09 02:17:16;;;;;;;36.53;29.43;;;;;;;0.51;100.00;94847.28;5069056;27;105317;-68
2021/12/09 02:19:44;;;;;;;35.37;28.33;;;;;;;0.62;100.00;94839.44;5069360;27;101924;-67
2021/12/09 02:22:15;;;;;;;36.83;28.60;;;;;;;0.57;100.00;94846.38;5069614;27;105066;-68
2021/12/09 02:24:43;;;;;;;33.83;27.77;;;;;;;0.57;100.00;94830.69;5069007;27;105073;-68
2021/12/09 02:27:09;;;;;;;35.27;26.67;;;;;;;0.59;100.00;94841.72;5069312;27;102200;-68
2021/12/09 02:29:39;;;;;;;35.40;26.97;;;;;;;0.48;100.00;94843.31;5069224;27;105122;-68
2021/12/09 02:32:06;;;;;;;31.23;26.20;;;;;;;0.36;100.00;94857.38;5069004;27;104508;-68
2021/12/09 02:34:34;;;;;;;34.17;26.20;;;;;;;0.42;100.00;94853.84;5072573;27;101861;-68
2021/12/09 02:37:03;;;;;;;34.17;26.93;;;;;;;0.45;100.00;94871.72;5068776;27;105024;-68
2021/12/09 02:39:32;;;;;;;33.13;25.60;;;;;;;0.52;100.00;94865.38;5069039;27;101912;-68
2021/12/09 02:41:59;;;;;;;32.00;25.13;;;;;;;0.47;100.00;94873.09;5069100;27;105035;-68
2021/12/09 02:44:27;;;;;;;37.00;27.67;;;;;;;0.49;100.00;94880.69;5068513;27;105746;-68
2021/12/09 02:46:56;;;;;;;33.90;26.60;;;;;;;0.49;100.00;94870.22;5069116;27;102031;-68
2021/12/09 02:49:27;;;;;;;37.57;28.17;;;;;;;0.53;100.00;94880.03;5068928;27;105466;-68
2021/12/09 02:51:56;;;;;;;37.40;27.43;;;;;;;0.54;100.00;94878.19;5069649;27;105035;-68
2021/12/09 02:54:26;;;;;;;36.00;28.00;;;;;;;0.68;100.00;94887.44;5068849;27;101904;-68
2021/12/09 02:57:00;;;;;;;37.60;28.87;;;;;;;0.62;100.00;94890.97;5071927;27;105513;-68
2021/12/09 02:59:27;;;;;;;38.73;28.97;;;;;;;0.60;100.00;94893.78;5068570;27;101813;-68
2021/12/09 03:01:57;;;;;;;39.30;29.07;;;;;;;0.63;100.00;94913.47;5069081;27;105606;-68
2021/12/09 03:04:27;;;;;;;41.37;30.83;;;;;;;0.59;100.00;94914.94;5068380;27;105313;-68
2021/12/09 03:06:55;;;;;;;38.63;29.23;;;;;;;0.53;100.00;94910.59;5068670;27;102097;-68
2021/12/09 03:09:24;;;;;;;39.13;29.47;;;;;;;0.55;100.00;94903.34;5068678;27;105592;-68
2021/12/09 03:11:55;;;;;;;38.87;29.23;;;;;;;0.65;100.00;94898.34;5068165;27;104390;-68
2021/12/09 03:14:25;;;;;;;36.33;28.83;;;;;;;0.64;100.00;94894.13;5068935;27;101845;-68
2021/12/09 03:16:52;;;;;;;36.50;28.40;;;;;;;0.66;100.00;94897.34;5068953;27;103749;-68
2021/12/09 03:19:19;;;;;;;38.77;29.37;;;;;;;0.63;100.00;94895.16;5071387;27;105271;-68
2021/12/09 03:21:48;;;;;;;36.43;28.27;;;;;;;0.69;100.00;94891.63;5068566;27;105388;-68
2021/12/09 03:24:17;;;;;;;35.40;27.00;;;;;;;0.63;100.00;94901.19;5068053;27;105523;-68
2021/12/09 03:26:48;;;;;;;36.93;26.73;;;;;;;0.66;100.00;94898.13;5069682;27;101822;-68
2021/12/09 03:29:17;;;;;;;35.13;26.67;;;;;;;0.66;100.00;94898.13;5068544;27;104813;-68
2021/12/09 03:31:48;;;;;;;32.53;25.03;;;;;;;0.63;100.00;94908.25;5067836;27;105448;-68
2021/12/09 03:34:17;;;;;;;33.73;25.87;;;;;;;0.61;100.00;94912.91;5068474;27;101805;-68
2021/12/09 03:36:45;;;;;;;35.03;25.80;;;;;;;0.63;100.00;94903.81;5068370;27;104899;-68
2021/12/09 03:39:17;;;;;;;33.17;25.93;;;;;;;0.67;100.00;94898.94;5071331;27;105651;-68
2021/12/09 03:41:45;;;;;;;32.80;25.30;;;;;;;0.60;100.00;94890.41;5068495;27;103522;-68
2021/12/09 03:44:13;;;;;;;33.20;25.77;;;;;;;0.67;100.00;94888.47;5069152;27;103034;-68
2021/12/09 03:46:40;;;;;;;37.50;25.13;;;;;;;0.72;100.00;94885.97;5068261;27;101836;-68
2021/12/09 03:49:09;;;;;;;31.73;24.03;;;;;;;0.75;100.00;94890.72;5073233;27;102610;-68
2021/12/09 03:51:36;;;;;;;32.60;25.13;;;;;;;0.72;100.00;94897.22;5071302;27;105360;-68
2021/12/09 03:54:04;;;;;;;31.27;23.93;;;;;;;0.72;100.00;94893.81;5072087;27;101821;-68
2021/12/09 03:56:31;;;;;;;32.53;23.67;;;;;;;0.73;100.00;94909.25;5071793;27;105416;-68
2021/12/09 03:58:59;;;;;;;34.40;24.17;;;;;;;0.74;100.00;94907.47;5071351;27;105386;-68
2021/12/09 04:01:26;;;;;;;31.70;23.93;;;;;;;0.69;100.00;94907.34;5075214;27;101992;-68
2021/12/09 04:03:55;;;;;;;28.80;22.37;;;;;;;0.69;100.00;94892.44;5071318;27;105209;-68
2021/12/09 04:06:24;;;;;;;30.70;23.30;;;;;;;0.70;100.00;94885.38;5071609;27;101981;-68
2021/12/09 04:08:51;;;;;;;32.50;23.33;;;;;;;0.76;100.00;94892.31;5073017;27;102879;-68
2021/12/09 04:11:18;;;;;;;32.97;23.83;;;;;;;0.71;100.00;94902.69;5072477;27;103142;-68
2021/12/09 04:13:45;;;;;;;30.23;22.47;;;;;;;0.73;100.00;94914.50;5071138;27;102119;-68
2021/12/09 04:16:12;;;;;;;31.37;22.93;;;;;;;0.77;100.00;94913.03;5071660;27;103715;-68
2021/12/09 04:18:42;;;;;;;32.70;23.37;;;;;;;0.66;100.00;94918.25;5070870;27;105982;-68
2021/12/09 04:21:09;;;;;;;30.80;22.87;;;;;;;0.70;100.00;94919.38;5071546;27;101908;-67
2021/12/09 04:23:38;;;;;;;31.53;23.40;;;;;;;0.77;100.00;94920.09;5074158;27;105406;-68
2021/12/09 04:26:05;;;;;;;28.73;21.30;;;;;;;0.69;100.00;94917.78;5072648;27;102169;-68
2021/12/09 04:28:33;;;;;;;30.67;22.20;;;;;;;0.68;100.00;94922.25;5071347;27;105299;-68
2021/12/09 04:31:01;;;;;;;30.07;21.70;;;;;;;0.68;100.00;94932.72;5070916;27;105364;-67
2021/12/09 04:33:29;;;;;;;29.40;21.80;;;;;;;0.74;100.00;94931.00;5070562;27;101830;-68
2021/12/09 04:35:56;;;;;;;30.87;23.10;;;;;;;0.79;100.00;94929.31;5070645;27;104998;-68
2021/12/09 04:38:23;;;;;;;30.90;21.93;;;;;;;0.91;100.00;94934.53;5071410;27;102837;-68
2021/12/09 04:40:52;;;;;;;31.33;22.30;;;;;;;0.83;100.00;94925.22;5071151;27;101975;-67
2021/12/09 04:43:19;;;;;;;29.30;22.17;;;;;;;0.86;100.00;94922.16;5072309;27;102400;-68
2021/12/09 04:45:47;;;;;;;28.07;21.87;;;;;;;0.87;100.00;94936.00;5075144;27;101811;-68
2021/12/09 04:48:14;;;;;;;30.77;21.73;;;;;;;0.78;100.00;94938.16;5072196;27;102325;-68
2021/12/09 04:50:42;;;;;;;27.77;21.17;;;;;;;0.97;100.00;94946.72;5070269;27;105052;-68
2021/12/09 04:53:11;;;;;;;30.30;21.40;;;;;;;0.81;100.00;94947.38;5071177;27;101878;-68
2021/12/09 04:55:39;;;;;;;30.10;20.93;;;;;;;0.83;100.00;94950.59;5070868;27;105535;-68
2021/12/09 04:58:08;;;;;;;30.80;21.50;;;;;;;0.95;100.00;94957.44;5070972;27;102548;-68
2021/12/09 05:00:38;;;;;;;29.37;21.43;;;;;;;0.94;100.00;94953.19;5070030;27;101718;-68
2021/12/09 05:03:08;;;;;;;30.57;21.83;;;;;;;0.92;100.00;94964.91;5070811;27;105104;-68
2021/12/09 05:05:38;;;;;;;30.23;21.27;;;;;;;0.95;100.00;94974.94;5070024;27;103992;-68
2021/12/09 05:08:07;;;;;;;28.87;21.53;;;;;;;1.01;100.00;94987.13;5075176;27;101832;-68
2021/12/09 05:10:48;;;;;;;32.90;21.93;;;;;;;1.00;100.00;95001.25;5070131;27;105027;-68
2021/12/09 05:13:16;;;;;;;29.50;20.77;;;;;;;0.96;100.00;95013.19;5084998;27;101811;-68
2021/12/09 05:15:44;;;;;;;32.90;21.83;;;;;;;0.91;100.00;95015.66;5070861;27;105241;-68
2021/12/09 05:18:11;;;;;;;30.40;21.87;;;;;;;0.91;100.00;95026.13;5071552;27;102723;-68
2021/12/09 05:20:40;;;;;;;32.23;22.50;;;;;;;0.93;100.00;95029.34;5091238;27;103302;-67
2021/12/09 05:23:08;;;;;;;33.47;23.83;;;;;;;0.89;100.00;95038.66;5089491;27;104797;-68
2021/12/09 05:25:46;;;;;;;31.77;21.70;;;;;;;0.93;100.00;95045.81;5092199;27;103143;-68
2021/12/09 05:28:16;;;;;;;28.30;20.43;;;;;;;0.96;100.00;95048.00;5072174;27;101760;-68
2021/12/09 05:33:30;;;;;;;31.10;21.17;;;;;;;1.03;100.00;95056.53;5070616;27;101783;-68
2021/12/09 05:35:57;;;;;;;32.17;22.30;;;;;;;1.03;100.00;95055.72;5070567;27;105198;-68
2021/12/09 05:38:25;;;;;;;28.13;20.67;;;;;;;1.05;100.00;95057.09;5071179;27;102607;-68
2021/12/09 05:40:52;;;;;;;31.03;21.10;;;;;;;1.05;100.00;95059.72;5070352;27;102041;-68
2021/12/09 05:43:19;;;;;;;30.93;20.93;;;;;;;1.11;100.00;95060.66;5070070;27;105167;-68
2021/12/09 05:45:49;;;;;;;33.03;21.37;;;;;;;1.04;100.00;95059.97;5069841;27;104936;-68
2021/12/09 05:48:17;;;;;;;31.03;21.27;;;;;;;1.05;100.00;95056.31;5070122;27;101849;-67
2021/12/09 05:50:45;;;;;;;30.63;21.30;;;;;;;1.05;100.00;95053.72;5072983;27;105268;-68
2021/12/09 05:53:13;;;;;;;32.13;21.50;;;;;;;1.02;100.00;95048.91;5070040;27;101833;-68
2021/12/09 05:55:43;;;;;;;29.93;21.60;;;;;;;1.04;100.00;95046.88;5070252;27;105411;-68
2021/12/09 05:58:11;;;;;;;27.00;19.63;;;;;;;1.11;100.00;95043.13;5069097;27;105368;-68
2021/12/09 06:00:38;;;;;;;30.33;21.13;;;;;;;1.10;100.00;95038.91;5071243;27;101783;-68
2021/12/09 06:03:07;;;;;;;27.00;19.83;;;;;;;0.95;100.00;95040.38;5070013;27;105139;-68
2021/12/09 06:05:35;;;;;;;31.70;20.73;;;;;;;0.91;100.00;95047.06;5070498;27;103110;-68
2021/12/09 06:08:03;;;;;;;28.57;20.70;;;;;;;0.87;100.00;95058.97;5069621;27;101925;-68
2021/12/09 06:10:30;;;;;;;25.17;18.57;;;;;;;1.02;100.00;95054.97;5069277;27;105343;-68
2021/12/09 06:12:58;;;;;;;30.10;20.90;;;;;;;0.83;100.00;95050.78;5072634;27;105394;-67
2021/12/09 06:15:25;;;;;;;27.17;20.40;;;;;;;0.86;100.00;95060.81;5069697;27;105676;-67
2021/12/09 06:17:52;;;;;;;32.10;21.73;;;;;;;0.91;100.00;95062.75;5069075;27;105453;-68
2021/12/09 06:20:21;;;;;;;33.17;21.67;;;;;;;0.87;100.00;95064.22;5069515;27;101920;-68
2021/12/09 06:22:48;;;;;;;31.40;22.70;;;;;;;0.86;100.00;95063.44;5069730;27;105254;-68
2021/12/09 06:25:18;;;;;;;33.13;22.43;;;;;;;0.89;100.00;95062.19;5069048;27;106436;-68
2021/12/09 06:27:45;;;;;;;28.60;20.83;;;;;;;0.83;100.00;95063.09;5069244;27;101821;-68
2021/12/09 06:30:14;;;;;;;28.07;20.70;;;;;;;0.89;100.00;95062.19;5069552;27;105084;-68
2021/12/09 06:32:41;;;;;;;27.47;21.30;;;;;;;0.93;100.00;95056.28;5070027;27;102557;-68
2021/12/09 06:35:09;;;;;;;29.17;20.63;;;;;;;0.92;100.00;95051.28;5073090;27;101935;-68
2021/12/09 06:37:43;;;;;;;27.80;20.23;;;;;;;0.91;100.00;95047.06;5068828;27;104188;-68
2021/12/09 06:40:13;;;;;;;28.03;20.63;;;;;;;1.02;100.00;95046.28;5069174;27;101878;-68
2021/12/09 06:42:40;;;;;;;27.97;20.90;;;;;;;0.98;100.00;95050.38;5069164;27;104848;-68
2021/12/09 06:45:08;;;;;;;29.47;21.67;;;;;;;0.93;100.00;95060.75;5068541;27;105368;-68
2021/12/09 06:47:35;;;;;;;29.83;20.77;;;;;;;0.95;100.00;95063.91;5068959;27;102081;-68
2021/12/09 06:50:06;;;;;;;29.67;20.43;;;;;;;0.88;100.00;95061.38;5070179;27;101967;-68
2021/12/09 06:52:33;;;;;;;31.07;21.13;;;;;;;0.94;100.00;95063.09;5069005;27;105006;-68
2021/12/09 06:55:02;;;;;;;29.00;20.47;;;;;;;0.99;100.00;95065.06;5069358;27;101820;-68
2021/12/09 06:57:29;;;;;;;30.47;21.17;;;;;;;0.87;100.00;95066.84;5072965;27;102622;-68
2021/12/09 06:59:57;;;;;;;28.60;21.30;;;;;;;0.83;100.00;95076.94;5070483;27;101998;-68
2021/12/09 07:02:24;;;;;;;29.87;22.60;;;;;;;0.94;100.00;95075.41;5070393;27;102369;-68
2021/12/09 07:04:51;;;;;;;30.47;22.80;;;;;;;1.04;100.00;95070.44;5068475;27;105047;-68
2021/12/09 07:07:18;;;;;;;29.97;22.23;;;;;;;0.94;100.00;95067.56;5069003;27;102161;-68
2021/12/09 07:09:45;;;;;;;29.63;22.40;;;;;;;0.96;100.00;95065.50;5068665;27;105101;-68
2021/12/09 07:12:14;;;;;;;31.03;22.73;;;;;;;1.13;100.00;95071.69;5068273;27;104979;-68
2021/12/09 07:14:43;;;;;;;32.17;22.70;;;;;;;1.07;100.00;95091.72;5070316;27;101855;-67
2021/12/09 07:17:10;;;;;;;33.03;24.33;;;;;;;1.06;100.00;95095.38;5068835;27;103799;-67
2021/12/09 07:19:37;;;;;;;30.60;23.10;;;;;;;1.03;100.00;95097.63;5071724;27;105465;-67
2021/12/09 07:22:20;;;;;;;34.07;23.70;;;;;;;0.95;100.00;95084.84;5068920;27;102495;-68
2021/12/09 07:24:47;;;;;;;32.30;22.87;;;;;;;0.97;100.00;95074.94;4986207;28;105625;-67
2021/12/09 07:27:15;;;;;;;29.63;22.67;;;;;;;1.08;100.00;95087.28;4986898;28;102021;-68
2021/12/09 07:29:43;;;;;;;27.60;21.13;;;;;;;1.06;100.00;95102.41;4986717;28;105241;-68
2021/12/09 07:32:11;;;;;;;28.70;21.20;;;;;;;1.10;100.00;95111.44;4969779;28;105775;-68
2021/12/09 07:34:38;;;;;;;34.03;23.53;;;;;;;1.18;100.00;95108.47;4970473;28;102016;-68
2021/12/09 07:37:05;;;;;;;33.57;22.73;;;;;;;1.11;100.00;95099.94;4986595;28;103996;-68
2021/12/09 07:39:34;;;;;;;29.87;22.17;;;;;;;1.06;100.00;95110.28;4969574;28;105198;-67
2021/12/09 07:42:02;;;;;;;30.17;21.93;;;;;;;1.13;100.00;95124.88;4990004;28;102054;-68
2021/12/09 07:44:33;;;;;;;30.40;20.93;;;;;;;1.12;100.00;95127.69;4969533;28;105597;-68
2021/12/09 07:47:01;;;;;;;27.23;20.70;;;;;;;1.06;100.00;95125.97;4969997;28;102042;-68
2021/12/09 07:49:28;;;;;;;24.13;19.50;;;;;;;0.99;100.00;95115.59;4986536;28;105687;-68
2021/12/09 07:51:56;;;;;;;26.77;19.70;;;;;;;1.12;100.00;95122.47;4969772;28;105238;-67
2021/12/09 07:54:23;;;;;;;25.60;19.07;;;;;;;1.18;100.00;95132.03;4969596;28;101891;-68
2021/12/09 07:56:50;;;;;;;25.93;18.27;;;;;;;1.22;100.00;95141.84;4970213;28;105323;-67
2021/12/09 07:59:17;;;;;;;26.03;19.40;;;;;;;1.08;100.00;95147.47;4986349;28;102751;-68
2021/12/09 08:01:47;;;;;;;27.33;19.97;;;;;;;1.13;100.00;95140.56;5008566;27;101922;-68
2021/12/09 08:04:14;;;;;;;27.60;19.97;;;;;;;1.26;100.00;95139.59;5069232;27;102654;-68
2021/12/09 08:06:41;;;;;;;23.90;18.40;;;;;;;1.28;100.00;95137.53;5068020;27;101907;-68
2021/12/09 08:09:09;;;;;;;23.80;17.57;;;;;;;1.36;100.00;95139.81;5067991;27;104098;-68
2021/12/09 08:11:37;;;;;;;22.23;17.60;;;;;;;1.38;100.00;95145.66;5067444;27;105769;-68
2021/12/09 08:14:05;;;;;;;23.60;18.10;;;;;;;1.43;100.00;95145.78;5067700;27;102106;-68
2021/12/09 08:16:36;;;;;;;25.87;19.67;;;;;;;1.43;100.00;95138.72;5067986;27;104958;-68
2021/12/09 08:19:05;;;;;;;25.53;18.40;;;;;;;1.43;100.00;95137.94;5067517;27;105321;-68
2021/12/09 08:21:33;;;;;;;24.03;18.07;;;;;;;1.55;100.00;95142.19;5069027;27;101844;-68
2021/12/09 08:24:01;;;;;;;24.87;18.40;;;;;;;1.55;100.00;95144.78;5071136;27;104776;-68
2021/12/09 08:26:28;;;;;;;23.93;17.63;;;;;;;1.48;100.00;95151.16;5068985;27;101815;-68
2021/12/09 08:28:55;;;;;;;19.97;15.50;;;;;;;1.31;100.00;95142.34;5069425;27;102986;-68
2021/12/09 08:31:23;;;;;;;21.30;16.60;;;;;;;1.31;100.00;95147.59;5067309;27;104038;-68
2021/12/09 08:33:50;;;;;;;18.53;15.13;;;;;;;1.45;100.00;95154.19;5069740;27;101881;-68
2021/12/09 08:36:19;;;;;;;19.63;15.10;;;;;;;1.50;100.00;95167.44;5070962;27;104835;-69
2021/12/09 08:38:45;;;;;;;20.33;15.23;;;;;;;1.45;100.00;95175.97;5070582;27;104962;-69
2021/12/09 08:41:14;;;;;;;19.73;14.97;;;;;;;1.43;100.00;95182.44;5070865;27;101745;-68
2021/12/09 08:43:42;;;;;;;18.33;14.13;;;;;;;1.49;100.00;95181.56;5070716;27;104999;-70
2021/12/09 08:46:09;;;;;;;17.80;14.13;;;;;;;1.45;100.00;95183.00;5073016;27;105475;-70
2021/12/09 08:48:36;;;;;;;20.03;14.50;;;;;;;1.41;100.00;95172.19;5071195;27;104798;-70
2021/12/09 08:51:03;;;;;;;17.37;13.23;;;;;;;1.50;100.00;95175.28;5070506;27;105504;-69
2021/12/09 08:53:32;;;;;;;16.80;13.73;;;;;;;1.40;100.00;95177.66;5070835;27;101743;-70
2021/12/09 08:55:59;;;;;;;16.47;12.67;;;;;;;1.32;100.00;95188.44;5070919;27;103754;-69
2021/12/09 08:58:28;;;;;;;18.50;13.30;;;;;;;1.41;100.00;95184.47;5072135;27;102653;-69
2021/12/09 09:00:58;;;;;;;16.83;12.43;;;;;;;1.18;100.00;95187.81;5070833;27;101923;-71
2021/12/09 09:03:26;;;;;;;17.20;13.43;;;;;;;1.30;100.00;95193.09;5070873;27;105354;-69
2021/12/09 09:05:54;;;;;;;17.10;13.43;;;;;;;1.40;100.00;95190.75;5071513;27;102943;-70
2021/12/09 09:08:22;;;;;;;16.77;14.00;;;;;;;1.42;100.00;95199.19;5075541;27;101810;-69
2021/12/09 09:10:50;;;;;;;18.23;14.17;;;;;;;1.42;100.00;95197.34;5071412;27;102816;-68
2021/12/09 09:13:17;;;;;;;16.43;13.37;;;;;;;1.34;100.00;95202.09;5071999;27;102025;-65
2021/12/09 09:15:48;;;;;;;16.77;13.17;;;;;;;1.49;100.00;95199.88;5070721;27;103612;-68
2021/12/09 09:18:16;;;;;;;17.60;13.87;;;;;;;1.61;100.00;95200.72;5070089;27;106791;-67
2021/12/09 09:20:44;;;;;;;18.33;14.93;;;;;;;1.57;100.00;95204.78;5071897;27;101686;-68
2021/12/09 09:23:14;;;;;;;16.60;13.43;;;;;;;1.59;100.00;95213.25;5070312;27;106137;-68
2021/12/09 09:25:42;;;;;;;15.70;12.77;;;;;;;1.46;100.00;95216.03;5071045;27;103346;-67
2021/12/09 09:28:11;;;;;;;16.57;12.50;;;;;;;1.41;100.00;95213.28;5070346;27;102006;-67
2021/12/09 09:30:40;;;;;;;14.43;12.40;;;;;;;1.33;100.00;95213.59;5073527;27;104436;-67
2021/12/09 09:33:10;;;;;;;13.87;11.40;;;;;;;1.34;100.00;95223.06;5070315;27;102069;-66
2021/12/09 09:35:39;;;;;;;13.27;11.10;;;;;;;1.34;100.00;95215.19;5070192;27;105194;-67
2021/12/09 09:38:07;;;;;;;14.80;11.67;;;;;;;1.45;100.00;95214.44;5070894;27;102634;-67
2021/12/09 09:40:40;;;;;;;14.50;11.33;;;;;;;1.54;100.00;95216.50;5070092;27;102063;-69
2021/12/09 09:43:25;;;;;;;15.77;12.17;;;;;;;1.61;100.00;95212.00;5071589;27;102348;-66
2021/12/09 09:45:55;;;;;;;13.07;11.23;;;;;;;1.69;100.00;95214.28;5067475;27;105223;-66
2021/12/09 09:48:22;;;;;;;13.43;11.63;;;;;;;1.81;100.00;95203.84;5057658;27;102101;-66
2021/12/09 09:50:54;;;;;;;15.67;11.47;;;;;;;1.75;100.00;95210.00;5070158;27;104852;-65
2021/12/09 09:53:21;;;;;;;13.93;10.67;;;;;;;1.71;100.00;95198.34;5053340;27;102346;-67
2021/12/09 09:55:50;;;;;;;14.50;11.23;;;;;;;1.94;100.00;95201.81;5061314;27;105499;-67
2021/12/09 09:58:17;;;;;;;13.07;10.90;;;;;;;1.84;100.00;95195.53;5067119;27;105772;-67
2021/12/09 10:00:46;;;;;;;14.23;10.77;;;;;;;1.70;100.00;95209.88;5070059;27;101911;-68
2021/12/09 10:03:17;;;;;;;13.77;11.20;;;;;;;1.64;100.00;95214.16;5069980;27;104778;-65
2021/12/09 10:05:47;;;;;;;14.83;11.13;;;;;;;1.67;100.00;95220.78;5059030;27;105596;-65
2021/12/09 10:08:17;;;;;;;13.77;11.03;;;;;;;1.70;100.00;95212.47;5049812;27;101837;-65
2021/12/09 10:10:51;;;;;;;12.37;10.27;;;;;;;1.62;100.00;95220.66;5055420;27;104885;-65
2021/12/09 10:13:21;;;;;;;11.97;10.23;;;;;;;1.63;100.00;95227.47;5071507;27;104166;-65
2021/12/09 10:15:50;;;;;;;13.63;10.83;;;;;;;1.63;100.00;95235.34;5070353;27;102614;-65
2021/12/09 10:21:19;;;;;;;12.43;9.63;;;;;;;1.55;100.00;95243.53;5050345;27;101564;-64
2021/12/09 10:23:50;;;;;;;12.90;9.87;;;;;;;1.53;100.00;95233.25;5043847;27;105227;-65
2021/12/09 10:26:23;;;;;;;12.97;9.27;;;;;;;1.57;100.00;95236.22;5046816;27;101825;-65
2021/12/09 10:28:56;;;;;;;10.97;8.23;;;;;;;1.51;100.00;95227.47;5045144;27;103571;-65
2021/12/09 10:31:27;;;;;;;10.73;8.63;;;;;;;1.64;100.00;95226.47;5046545;27;102455;-65
2021/12/09 10:34:13;;;;;;;10.03;8.10;;;;;;;1.76;100.00;95225.47;5047243;27;102261;-65
2021/12/09 10:36:58;;;;;;;11.50;8.23;;;;;;;1.69;100.00;95218.75;5046479;27;104244;-65
2021/12/09 10:39:32;;;;;;;9.47;7.70;;;;;;;1.82;100.00;95224.59;5046477;27;103069;-65
2021/12/09 10:42:02;;;;;;;11.83;8.50;;;;;;;1.64;100.00;95223.88;5050257;27;101736;-65
2021/12/09 10:44:35;;;;;;;11.20;8.73;;;;;;;1.72;100.00;95226.16;5046082;27;104093;-65
2021/12/09 10:47:12;;;;;;;11.37;8.20;;;;;;;1.74;100.00;95226.72;5046582;27;101901;-65
2021/12/09 10:49:49;;;;;;;10.43;8.20;;;;;;;1.75;100.00;95217.84;5044957;27;105117;-65
2021/12/09 10:52:39;;;;;;;8.80;7.30;;;;;;;1.71;100.00;95216.69;5044242;27;103966;-65
2021/12/09 10:55:12;;;;;;;8.23;6.23;;;;;;;1.75;100.00;95217.84;5046574;27;101872;-65
2021/12/09 10:57:39;;;;;;;5.30;4.30;;;;;;;1.78;100.00;95222.63;5044543;27;103576;-65
2021/12/09 11:00:21;;;;;;;4.10;3.80;;;;;;;1.68;100.00;95227.59;5045185;27;102643;-65
2021/12/09 11:03:02;;;;;;;3.77;3.47;;;;;;;1.72;100.00;95234.00;5044704;27;101789;-65
2021/12/09 11:05:29;;;;;;;3.87;3.47;;;;;;;1.87;100.00;95231.78;5049337;27;102934;-65
2021/12/09 11:08:14;;;;;;;5.13;4.50;;;;;;;1.87;100.00;95232.56;5046258;27;101797;-65
2021/12/09 11:10:46;;;;;;;4.97;4.50;;;;;;;1.88;100.00;95238.59;5046459;27;102358;-65
2021/12/09 11:13:14;;;;;;;5.23;4.50;;;;;;;1.98;100.00;95246.72;5045795;27;102704;-65
2021/12/09 11:15:47;;;;;;;4.70;4.23;;;;;;;2.05;100.00;95237.75;5045892;27;101701;-65
2021/12/09 11:18:35;;;;;;;5.50;4.40;;;;;;;1.97;100.00;95242.50;5045651;27;102473;-65
2021/12/09 11:21:06;;;;;;;5.10;4.60;;;;;;;2.04;100.00;95243.22;5043302;27;103927;-65
2021/12/09 11:23:39;;;;;;;6.00;4.27;;;;;;;2.03;100.00;95249.47;5046249;27;101674;-65